Terminal Aerodrome Forecast
Issued by NWS Charleston, WV

Current Version | Previous Version | Graphics & Text | Print | Product List | Glossary On
Versions: 1 2 3 4 5 6 7 8 9 10 11 12 13 14 15 16 17 18 19 20 21 22 23 24 25 26
000
FTUS41 KRLX 191700
TAFCRW
TAF
KCRW 191730Z 1918/2018 00000KT 6SM BR FEW009 BKN018
     FM191900 VRB04KT P6SM VCTS SCT020 BKN035CB
     FM200000 00000KT 5SM BR BKN035
     FM200600 00000KT 3SM -SHRA BR SCT001 BKN025
     FM201100 00000KT 1 1/2SM BR OVC001
     FM201200 00000KT 4SM BR OVC005
     FM201400 00000KT 6SM BR OVC050
     FM201500 24005KT P6SM BKN040=

USA.gov is the U.S. government's official web portal to all federal, state and local government web resources and services.